createdAt,value
2017-10-04T12:38:39.534Z,16.40
2017-10-04T12:41:07.943Z,16.26
2017-10-04T12:43:36.278Z,16.18
2017-10-04T12:46:04.643Z,16.05
2017-10-04T12:48:33.060Z,16.13
2017-10-04T12:51:03.054Z,16.37
2017-10-04T12:53:32.349Z,16.19
2017-10-04T12:56:00.704Z,16.00
2017-10-04T12:58:29.831Z,15.89
2017-10-04T13:00:58.611Z,15.92
2017-10-04T13:03:27.059Z,15.92
2017-10-04T13:05:56.210Z,16.12
2017-10-04T13:08:25.471Z,16.36
2017-10-04T13:10:55.346Z,16.36
2017-10-04T13:13:24.393Z,16.45
2017-10-04T13:15:54.080Z,16.34
2017-10-04T13:18:23.235Z,16.28
2017-10-04T13:20:51.586Z,16.12
2017-10-04T13:23:20.011Z,16.30
2017-10-04T13:25:48.346Z,16.52
2017-10-04T13:28:16.695Z,16.26
2017-10-04T13:30:46.024Z,16.22
2017-10-04T13:33:14.368Z,16.23
2017-10-04T13:35:42.743Z,16.24
2017-10-04T13:38:11.122Z,15.88
2017-10-04T13:40:39.459Z,16.00
2017-10-04T13:43:07.815Z,15.80
2017-10-04T13:45:38.293Z,15.93
2017-10-04T13:48:07.361Z,16.10
2017-10-04T13:50:37.103Z,15.98
2017-10-04T13:53:05.537Z,16.01
2017-10-04T13:55:34.270Z,15.96
2017-10-04T13:58:04.443Z,16.09
2017-10-04T14:00:33.649Z,16.16
2017-10-04T14:03:02.048Z,16.14
2017-10-04T14:05:31.929Z,16.19
2017-10-04T14:08:01.174Z,16.20
2017-10-04T14:10:29.533Z,16.23
2017-10-04T14:12:57.882Z,16.28
2017-10-04T14:15:27.015Z,16.37
2017-10-04T14:17:55.723Z,16.39
2017-10-04T14:20:24.274Z,16.46
2017-10-04T14:22:54.343Z,16.15
2017-10-04T14:25:22.757Z,16.28
2017-10-04T14:27:51.877Z,16.26
2017-10-04T14:30:20.522Z,16.06
2017-10-04T14:32:49.668Z,15.94
2017-10-04T14:35:18.048Z,16.07
2017-10-04T14:37:46.863Z,16.16
2017-10-04T14:40:16.331Z,16.26
2017-10-04T14:42:44.666Z,16.26
2017-10-04T14:45:13.813Z,16.19
2017-10-04T14:47:42.248Z,15.73
2017-10-04T14:50:10.630Z,15.79
2017-10-04T14:52:39.493Z,16.04
2017-10-04T14:55:08.023Z,16.41
2017-10-04T14:57:36.425Z,16.11
2017-10-04T15:00:04.777Z,15.86
2017-10-04T15:02:33.351Z,15.77
2017-10-04T15:05:01.768Z,15.89
2017-10-04T15:07:30.529Z,16.08
2017-10-04T15:09:59.467Z,15.95
2017-10-04T15:12:28.771Z,15.96
2017-10-04T15:14:57.336Z,15.93
2017-10-04T15:17:26.086Z,16.05
2017-10-04T15:19:55.240Z,15.90
2017-10-04T15:22:23.874Z,15.73
2017-10-04T15:24:52.252Z,15.68
2017-10-04T15:27:20.678Z,15.79
2017-10-04T15:29:51.804Z,15.55
2017-10-04T15:32:20.176Z,15.78
2017-10-04T15:34:49.813Z,15.76
2017-10-04T15:37:18.909Z,15.55
2017-10-04T15:39:47.889Z,15.57
2017-10-04T15:42:16.486Z,15.44
2017-10-04T15:44:45.778Z,15.49
2017-10-04T15:47:14.103Z,15.41
2017-10-04T15:49:43.837Z,15.48
2017-10-04T15:52:12.228Z,15.48
2017-10-04T15:54:43.096Z,15.47
2017-10-04T15:57:12.257Z,15.62
2017-10-04T15:59:41.871Z,15.66
2017-10-04T16:02:11.061Z,15.51
2017-10-04T16:04:39.438Z,15.29
2017-10-04T16:07:07.813Z,15.22
2017-10-04T16:09:37.216Z,15.32
2017-10-04T16:12:07.139Z,15.38
2017-10-04T16:14:35.606Z,15.41
2017-10-04T16:17:05.325Z,15.58
2017-10-04T16:19:34.321Z,15.56
2017-10-04T16:22:03.111Z,15.47
2017-10-04T16:24:32.927Z,15.12
2017-10-04T16:27:02.062Z,15.17
2017-10-04T16:29:31.449Z,15.27
2017-10-04T16:31:59.828Z,15.24
2017-10-04T16:34:28.180Z,15.27
2017-10-04T16:36:56.600Z,15.17
2017-10-04T16:39:25.278Z,15.32
2017-10-04T16:41:53.643Z,15.02
2017-10-04T16:44:23.744Z,15.17
2017-10-04T16:46:52.075Z,15.18
2017-10-04T16:49:20.418Z,15.25
2017-10-04T16:51:49.606Z,15.09
2017-10-04T16:54:18.755Z,14.85
2017-10-04T16:56:47.120Z,14.96
2017-10-04T16:59:15.912Z,15.33
2017-10-04T17:01:46.545Z,15.13
2017-10-04T17:04:15.805Z,15.02
2017-10-04T17:06:44.404Z,14.97
2017-10-04T17:09:12.734Z,15.05
2017-10-04T17:11:41.843Z,15.02
2017-10-04T17:14:11.667Z,14.90
2017-10-04T17:16:40.180Z,14.94
2017-10-04T17:19:08.540Z,15.05
2017-10-04T17:21:36.915Z,14.89
2017-10-04T17:24:05.881Z,15.08
2017-10-04T17:26:35.413Z,14.98
2017-10-04T17:29:04.895Z,14.96
2017-10-04T17:31:33.787Z,14.94
2017-10-04T17:34:02.899Z,14.99
2017-10-04T17:36:31.256Z,15.23
2017-10-04T17:39:00.895Z,15.00
2017-10-04T17:41:29.292Z,14.91
2017-10-04T17:43:57.709Z,15.01
2017-10-04T17:46:26.071Z,14.74
2017-10-04T17:48:54.427Z,14.83
2017-10-04T17:51:23.435Z,14.82
2017-10-04T17:53:53.038Z,14.89
2017-10-04T17:56:22.233Z,15.07
2017-10-04T17:58:51.063Z,14.74
2017-10-04T18:01:19.446Z,14.80
2017-10-04T18:03:48.581Z,14.97
2017-10-04T18:06:16.971Z,14.85
2017-10-04T18:08:45.888Z,14.94
2017-10-04T18:11:14.586Z,15.07
2017-10-04T18:13:43.333Z,15.03
2017-10-04T18:16:11.692Z,15.03
2017-10-04T18:18:40.774Z,14.84
2017-10-04T18:21:09.901Z,14.78
2017-10-04T18:23:38.256Z,15.03
2017-10-04T18:26:07.481Z,14.96
2017-10-04T18:28:35.876Z,14.87
2017-10-04T18:31:05.137Z,14.92
2017-10-04T18:33:34.818Z,14.92
2017-10-04T18:36:04.072Z,14.80
2017-10-04T18:38:32.841Z,14.95
2017-10-04T18:41:01.951Z,15.00
2017-10-04T18:43:31.302Z,15.05
2017-10-04T18:46:00.596Z,15.05
2017-10-04T18:48:29.109Z,14.93
2017-10-04T18:50:59.085Z,14.92
2017-10-04T18:53:28.160Z,14.82
2017-10-04T18:55:57.128Z,14.88
2017-10-04T18:58:26.336Z,14.77
2017-10-04T19:00:54.689Z,14.93
2017-10-04T19:03:24.319Z,14.84
2017-10-04T19:05:53.465Z,14.77
2017-10-04T19:08:21.816Z,14.87
2017-10-04T19:10:50.442Z,14.76
2017-10-04T19:13:18.838Z,14.84
2017-10-04T19:15:47.980Z,15.01
2017-10-04T19:18:16.332Z,15.09
2017-10-04T19:20:45.973Z,14.89
2017-10-04T19:23:14.343Z,14.79
2017-10-04T19:25:43.339Z,14.28
2017-10-04T19:28:11.693Z,14.21
2017-10-04T19:30:40.060Z,14.32
2017-10-04T19:33:08.425Z,14.31
2017-10-04T19:35:37.461Z,14.47
2017-10-04T19:38:05.807Z,14.62
2017-10-04T19:40:35.271Z,14.52
2017-10-04T19:43:04.402Z,14.37
2017-10-04T19:45:33.963Z,14.27
2017-10-04T19:48:02.732Z,14.09
2017-10-04T19:50:32.019Z,14.07
2017-10-04T19:53:01.275Z,14.06
2017-10-04T19:55:29.620Z,14.18
2017-10-04T19:57:58.299Z,14.09
2017-10-04T20:00:26.654Z,14.15
2017-10-04T20:02:56.010Z,14.19
2017-10-04T20:05:24.804Z,14.08
2017-10-04T20:07:53.273Z,14.18
2017-10-04T20:10:21.806Z,14.10
2017-10-04T20:12:52.114Z,14.39
2017-10-04T20:15:20.487Z,14.22
2017-10-04T20:17:48.854Z,13.99
2017-10-04T20:20:17.943Z,14.33
2017-10-04T20:22:46.325Z,14.31
2017-10-04T20:25:15.211Z,14.38
2017-10-04T20:27:43.734Z,14.16
2017-10-04T20:30:12.079Z,14.06
2017-10-04T20:32:41.062Z,14.16
2017-10-04T20:35:09.464Z,14.09
2017-10-04T20:37:37.834Z,14.16
2017-10-04T20:40:06.742Z,14.14
2017-10-04T20:42:35.100Z,14.15
2017-10-04T20:45:03.488Z,14.07
2017-10-04T20:47:32.587Z,13.98
2017-10-04T20:50:01.731Z,13.82
2017-10-04T20:52:30.515Z,13.70
2017-10-04T20:54:58.870Z,13.78
2017-10-04T20:57:27.476Z,13.72
2017-10-04T20:59:56.819Z,13.56
2017-10-04T21:02:25.172Z,13.71
2017-10-04T21:04:53.581Z,13.68
2017-10-04T21:07:22.863Z,13.72
2017-10-04T21:09:51.255Z,13.68
2017-10-04T21:12:20.526Z,13.73
2017-10-04T21:14:49.925Z,13.85
2017-10-04T21:17:18.275Z,13.76
2017-10-04T21:19:46.638Z,13.62
2017-10-04T21:22:15.007Z,13.48
2017-10-04T21:24:43.370Z,13.78
2017-10-04T21:27:12.539Z,13.91
2017-10-04T21:29:41.933Z,13.68
2017-10-04T21:32:10.797Z,13.78
2017-10-04T21:34:39.541Z,13.85
2017-10-04T21:37:08.153Z,13.71
2017-10-04T21:39:37.324Z,13.73
2017-10-04T21:42:06.323Z,13.76
2017-10-04T21:44:34.684Z,13.64
2017-10-04T21:47:03.935Z,13.85
2017-10-04T21:49:32.709Z,13.76
2017-10-04T21:52:01.097Z,13.63
2017-10-04T21:54:30.343Z,13.55
2017-10-04T21:56:59.147Z,13.66
2017-10-04T21:59:28.278Z,13.90
2017-10-04T22:01:57.440Z,13.79
2017-10-04T22:04:25.818Z,13.89
2017-10-04T22:06:55.548Z,13.77
2017-10-04T22:09:25.159Z,13.69
2017-10-04T22:11:53.540Z,13.50
2017-10-04T22:14:22.680Z,13.58
2017-10-04T22:16:51.063Z,13.82
2017-10-04T22:19:19.792Z,13.91
2017-10-04T22:21:48.143Z,13.78
2017-10-04T22:24:17.980Z,13.64
2017-10-04T22:26:47.571Z,13.78
2017-10-04T22:29:15.935Z,13.66
2017-10-04T22:31:44.304Z,13.73
2017-10-04T22:34:12.668Z,13.59
2017-10-04T22:36:41.528Z,13.67
2017-10-04T22:39:09.887Z,13.66
2017-10-04T22:41:38.577Z,13.84
2017-10-04T22:44:07.394Z,13.66
2017-10-04T22:46:36.490Z,13.77
2017-10-04T22:49:04.870Z,13.68
2017-10-04T22:51:34.212Z,13.52
2017-10-04T22:54:04.156Z,13.75
2017-10-04T22:56:32.507Z,13.72
2017-10-04T22:59:02.418Z,13.91
2017-10-04T23:01:31.696Z,13.78
2017-10-04T23:04:00.104Z,13.67
2017-10-04T23:06:29.470Z,13.59
2017-10-04T23:08:57.883Z,13.90
2017-10-04T23:11:28.518Z,13.88
2017-10-04T23:13:57.737Z,13.65
2017-10-04T23:16:26.142Z,13.57
2017-10-04T23:18:55.377Z,13.50
2017-10-04T23:21:23.750Z,13.68
2017-10-04T23:23:52.105Z,13.89
2017-10-04T23:26:20.849Z,13.98
2017-10-04T23:28:49.189Z,13.72
2017-10-04T23:31:17.534Z,13.81
2017-10-04T23:33:45.907Z,13.93
2017-10-04T23:36:15.800Z,14.17
2017-10-04T23:38:45.928Z,14.24
2017-10-04T23:41:16.491Z,14.41
2017-10-04T23:43:44.968Z,14.65
2017-10-04T23:46:14.161Z,14.85
2017-10-04T23:48:42.773Z,15.11
2017-10-04T23:51:11.123Z,15.13
2017-10-04T23:53:39.470Z,15.14
2017-10-04T23:56:07.929Z,15.30
2017-10-04T23:58:37.373Z,15.29
